Time;durP1;ratioP1;P1;durP2;ratioP2;P2;SDS_P1;SDS_P2;PMS_P1;PMS_P2;Temp;Humidity;BMP_temperature;BMP_pressure;BME280_temperature;BME280_humidity;BME280_pressure;Samples;Min_cycle;Max_cycle;Signal;HPM_P1;HPM_P2
2021/04/13 00:02:50;;;;;;;7.55;4.38;;;;;;;7.65;63.78;102125.31;4972581;28;20110;-89
2021/04/13 00:05:28;;;;;;;7.75;4.90;;;;;;;7.63;63.63;102121.03;4965334;28;20038;-89
2021/04/13 00:07:57;;;;;;;6.32;4.50;;;;;;;7.54;63.73;102123.00;4974221;28;20398;-88
2021/04/13 00:10:28;;;;;;;5.28;4.38;;;;;;;7.51;63.75;102120.47;4973024;28;20393;-88
2021/04/13 00:12:53;;;;;;;5.03;4.25;;;;;;;7.44;63.91;102120.69;4974934;28;20033;-89
2021/04/13 00:15:29;;;;;;;6.28;4.65;;;;;;;7.47;63.55;102121.47;4972641;28;20035;-88
2021/04/13 00:17:57;;;;;;;5.32;4.35;;;;;;;7.38;63.89;102120.84;4955589;28;20078;-88
2021/04/13 00:21:03;;;;;;;4.85;4.25;;;;;;;7.54;63.46;102122.13;4969197;28;20027;-88
2021/04/13 00:23:29;;;;;;;5.88;4.05;;;;;;;7.42;64.18;102118.09;4879610;29;20542;-88
2021/04/13 00:25:57;;;;;;;7.22;4.32;;;;;;;7.43;64.17;102125.06;4894934;29;20041;-88
2021/04/13 00:28:28;;;;;;;8.10;4.28;;;;;;;7.48;64.84;102107.47;4934871;28;20045;-89
2021/04/13 00:31:00;;;;;;;6.63;4.50;;;;;;;7.52;64.51;102114.34;4973677;28;20069;-89
2021/04/13 00:33:29;;;;;;;8.05;4.97;;;;;;;7.35;65.57;102116.56;4974535;28;20108;-89
2021/04/13 00:36:11;;;;;;;6.65;5.40;;;;;;;7.48;65.12;102112.69;4974603;28;20478;-88
2021/04/13 00:38:46;;;;;;;7.28;4.65;;;;;;;7.42;64.52;102120.72;4973634;28;20030;-89
2021/04/13 00:41:12;;;;;;;7.75;4.57;;;;;;;7.37;64.96;102120.00;4974477;28;20042;-88
2021/04/13 00:43:55;;;;;;;7.00;4.57;;;;;;;7.44;65.68;102121.53;4973794;28;20105;-88
2021/04/13 00:46:24;;;;;;;8.80;4.53;;;;;;;7.40;65.08;102114.66;4973397;28;20030;-88
2021/04/13 00:48:51;;;;;;;8.05;4.28;;;;;;;7.35;65.51;102116.56;4970469;28;20077;-88
2021/04/13 00:51:22;;;;;;;6.35;3.92;;;;;;;7.35;64.56;102120.03;4972379;28;20109;-87
2021/04/13 00:53:53;;;;;;;6.57;5.53;;;;;;;7.14;66.21;102113.63;4973016;28;20135;-88
2021/04/13 00:56:20;;;;;;;6.07;4.78;;;;;;;7.00;67.08;102117.50;4971972;28;20031;-89
2021/04/13 00:58:54;;;;;;;5.55;4.03;;;;;;;6.63;68.46;102114.03;4974212;28;20045;-88
2021/04/13 01:01:33;;;;;;;5.72;4.47;;;;;;;6.62;69.53;102122.78;4970764;28;20099;-88
2021/04/13 01:04:08;;;;;;;9.85;4.47;;;;;;;6.62;70.15;102130.59;4972616;28;20413;-88
2021/04/13 01:06:35;;;;;;;6.97;4.68;;;;;;;6.63;70.35;102121.84;4971807;28;20023;-88
2021/04/13 01:09:06;;;;;;;7.25;4.47;;;;;;;6.68;70.15;102125.22;4973927;28;20062;-87
2021/04/13 01:11:42;;;;;;;8.20;5.05;;;;;;;6.67;69.53;102128.72;4972895;28;20078;-87
2021/04/13 01:14:10;;;;;;;6.22;4.13;;;;;;;6.59;69.72;102120.22;4973954;28;20058;-88
2021/04/13 01:16:46;;;;;;;6.43;5.35;;;;;;;6.61;69.90;102123.66;4972582;28;20066;-88
2021/04/13 01:19:43;;;;;;;6.10;4.28;;;;;;;6.70;69.65;102120.81;4969239;28;20066;-88
2021/04/13 01:22:30;;;;;;;6.60;4.47;;;;;;;6.69;69.64;102108.66;4954004;28;20027;-88
2021/04/13 01:25:05;;;;;;;11.18;4.35;;;;;;;6.70;70.56;102113.00;4954570;28;20030;-88
2021/04/13 01:27:31;;;;;;;5.90;4.38;;;;;;;6.70;70.70;102117.38;4972580;28;20038;-88
2021/04/13 01:30:00;;;;;;;6.18;4.50;;;;;;;6.75;71.47;102115.47;4971779;28;20027;-88
2021/04/13 01:32:26;;;;;;;11.50;5.60;;;;;;;6.80;71.28;102113.63;4971149;28;20118;-87
2021/04/13 01:35:04;;;;;;;5.25;4.50;;;;;;;6.86;72.22;102110.88;4971178;28;20470;-87
2021/04/13 01:38:15;;;;;;;9.27;5.07;;;;;;;6.94;72.02;102118.50;4973587;28;20450;-88
2021/04/13 01:40:44;;;;;;;4.68;4.25;;;;;;;6.75;72.60;102118.09;4971310;28;20393;-88
2021/04/13 01:43:11;;;;;;;6.85;5.05;;;;;;;6.92;71.55;102117.69;4971403;28;20058;-88
2021/04/13 01:45:38;;;;;;;5.03;4.30;;;;;;;6.95;70.90;102122.81;4971321;28;20031;-87
2021/04/13 01:48:08;;;;;;;6.55;4.30;;;;;;;7.35;68.71;102125.25;4972685;28;20026;-88
2021/04/13 01:50:37;;;;;;;8.65;5.57;;;;;;;7.21;69.02;102116.06;4973331;28;20117;-88
2021/04/13 01:53:16;;;;;;;8.30;6.07;;;;;;;7.20;69.52;102125.66;4970962;28;20023;-87
2021/04/13 01:55:54;;;;;;;7.55;5.30;;;;;;;7.32;69.63;102129.72;4972136;28;20069;-87
2021/04/13 01:58:39;;;;;;;6.75;5.25;;;;;;;7.39;69.01;102133.03;4973163;28;20062;-87
2021/04/13 02:01:13;;;;;;;6.95;5.50;;;;;;;7.38;69.86;102134.75;4969776;28;20038;-87
2021/04/13 02:03:53;;;;;;;9.13;5.38;;;;;;;7.51;70.09;102127.47;4969867;28;20552;-87
2021/04/13 02:06:24;;;;;;;6.93;5.45;;;;;;;7.55;70.67;102144.78;4972989;28;20038;-87
2021/04/13 02:08:58;;;;;;;9.45;6.20;;;;;;;7.64;70.12;102133.19;4972112;28;20031;-87
2021/04/13 02:11:27;;;;;;;7.28;5.10;;;;;;;7.85;69.89;102140.44;4972110;28;20039;-87
2021/04/13 02:14:04;;;;;;;5.57;4.68;;;;;;;7.92;68.78;102139.38;4970873;28;20034;-88
2021/04/13 02:16:34;;;;;;;6.82;5.45;;;;;;;7.93;68.57;102127.97;4970541;28;20035;-87
2021/04/13 02:19:02;;;;;;;9.50;4.80;;;;;;;7.77;68.23;102131.94;4971752;28;20027;-88
2021/04/13 02:21:42;;;;;;;9.52;5.20;;;;;;;7.64;69.14;102127.97;4971662;28;20034;-87
2021/04/13 02:24:15;;;;;;;6.70;4.13;;;;;;;7.71;68.00;102126.91;4970580;28;20030;-87
2021/04/13 02:26:46;;;;;;;8.18;4.53;;;;;;;7.48;68.19;102128.38;4971973;28;20026;-87
2021/04/13 02:29:14;;;;;;;4.15;3.42;;;;;;;7.35;68.48;102127.03;4971915;28;20059;-87
2021/04/13 02:31:49;;;;;;;7.03;3.95;;;;;;;7.27;68.66;102129.00;4971883;28;20049;-87
2021/04/13 02:34:29;;;;;;;4.85;3.70;;;;;;;7.01;68.71;102133.13;4971221;28;20381;-87
2021/04/13 02:36:59;;;;;;;9.05;3.67;;;;;;;7.08;67.99;102132.06;4971716;28;20026;-87
2021/04/13 02:39:30;;;;;;;4.57;3.15;;;;;;;6.61;69.41;102133.25;4972917;28;20027;-87
2021/04/13 02:42:05;;;;;;;7.15;3.53;;;;;;;6.90;68.35;102138.63;4970820;28;20084;-87
2021/04/13 02:44:31;;;;;;;5.93;3.83;;;;;;;6.80;69.33;102138.88;4975193;28;20162;-87
2021/04/13 02:47:00;;;;;;;23.60;8.85;;;;;;;6.54;70.44;102137.75;4973458;28;20027;-87
2021/04/13 02:49:27;;;;;;;37.67;15.13;;;;;;;6.28;70.82;102134.00;4975263;28;20027;-87
2021/04/13 02:52:05;;;;;;;57.13;19.67;;;;;;;6.39;70.64;102138.09;4975486;28;20052;-87
2021/04/13 02:54:44;;;;;;;51.47;19.40;;;;;;;6.60;70.05;102135.00;4975245;28;20404;-87
2021/04/13 02:57:19;;;;;;;38.03;17.45;;;;;;;6.54;69.98;102141.22;4976388;28;20393;-87
2021/04/13 02:59:45;;;;;;;31.10;13.40;;;;;;;6.35;69.71;102146.00;4956806;28;20034;-87
2021/04/13 03:02:23;;;;;;;27.85;10.45;;;;;;;6.57;69.55;102142.03;4989593;28;20034;-87
2021/04/13 03:04:51;;;;;;;20.52;8.45;;;;;;;6.20;70.33;102141.13;4975242;28;20027;-87
2021/04/13 03:07:21;;;;;;;19.42;9.13;;;;;;;5.78;71.51;102138.47;4975925;28;20026;-87
2021/04/13 03:09:49;;;;;;;14.10;5.85;;;;;;;5.41;75.14;102136.63;4976287;28;20031;-87
2021/04/13 03:12:15;;;;;;;11.40;6.22;;;;;;;5.72;74.78;102136.84;4975636;28;20027;-86
2021/04/13 03:14:49;;;;;;;7.85;4.43;;;;;;;5.93;74.50;102132.97;4976181;28;20086;-86
2021/04/13 03:17:20;;;;;;;6.60;4.50;;;;;;;6.01;74.11;102137.19;4972292;28;20030;-87
2021/04/13 03:19:49;;;;;;;9.55;5.50;;;;;;;6.05;74.31;102129.28;4974922;28;20030;-87
2021/04/13 03:22:17;;;;;;;8.50;5.20;;;;;;;6.21;73.34;102142.84;4976555;28;20125;-87
2021/04/13 03:24:46;;;;;;;14.65;4.53;;;;;;;5.92;73.96;102138.19;4974823;28;20501;-87
2021/04/13 03:27:16;;;;;;;9.82;4.47;;;;;;;6.14;74.03;102136.03;4974343;28;20457;-87
2021/04/13 03:29:50;;;;;;;7.07;4.38;;;;;;;6.05;73.78;102131.88;4956472;28;20027;-87
2021/04/13 03:32:20;;;;;;;8.13;4.65;;;;;;;6.24;72.95;102128.84;4970866;28;20552;-86
2021/04/13 03:34:46;;;;;;;7.90;5.03;;;;;;;5.83;74.92;102131.44;4974841;28;20202;-87
2021/04/13 03:37:13;;;;;;;13.60;6.85;;;;;;;5.93;75.47;102125.13;4975734;28;20050;-87
2021/04/13 03:39:42;;;;;;;24.90;10.77;;;;;;;5.98;74.92;102119.00;4974695;28;20035;-87
2021/04/13 03:42:20;;;;;;;28.88;11.45;;;;;;;6.25;74.09;102120.16;4974422;28;20400;-86
2021/04/13 03:44:46;;;;;;;8.85;6.15;;;;;;;6.00;76.34;102112.84;4973712;28;20030;-86
2021/04/13 03:47:17;;;;;;;8.75;4.78;;;;;;;6.12;76.65;102119.56;4971216;28;20055;-86
2021/04/13 03:49:44;;;;;;;8.05;4.40;;;;;;;6.12;77.34;102116.94;4973764;28;20022;-86
2021/04/13 03:52:23;;;;;;;8.27;4.47;;;;;;;6.08;77.36;102123.13;4974154;28;20039;-86
2021/04/13 03:54:49;;;;;;;6.13;3.60;;;;;;;6.20;77.20;102122.88;4973713;28;20489;-86
2021/04/13 03:57:30;;;;;;;7.80;4.20;;;;;;;6.29;76.68;102125.25;4973727;28;20682;-87
2021/04/13 03:59:57;;;;;;;12.52;5.05;;;;;;;6.52;76.41;102132.56;4975566;28;20027;-86
2021/04/13 04:02:22;;;;;;;15.15;5.60;;;;;;;6.57;75.20;102119.41;4973189;28;20053;-86
2021/04/13 04:04:48;;;;;;;5.75;4.32;;;;;;;6.33;74.20;102129.50;4974080;28;20469;-86
2021/04/13 04:07:32;;;;;;;6.75;4.13;;;;;;;6.26;74.27;102127.94;4974136;28;20030;-86
2021/04/13 04:09:57;;;;;;;7.53;3.88;;;;;;;6.32;72.96;102133.03;4971780;28;20026;-86
2021/04/13 04:12:28;;;;;;;10.05;5.22;;;;;;;6.13;72.99;102131.72;4975061;28;20034;-86
2021/04/13 04:15:07;;;;;;;5.63;4.38;;;;;;;6.23;73.75;102133.22;4973175;28;20023;-86
2021/04/13 04:17:35;;;;;;;6.05;5.03;;;;;;;6.18;73.03;102124.66;4969057;28;20038;-87
2021/04/13 04:20:05;;;;;;;6.30;4.40;;;;;;;6.33;73.70;102126.06;4973910;28;20496;-86
2021/04/13 04:22:31;;;;;;;7.90;5.35;;;;;;;6.20;73.95;102122.00;4973363;28;20038;-87
2021/04/13 04:25:12;;;;;;;5.65;5.00;;;;;;;6.14;74.19;102128.19;4974174;28;20034;-86
2021/04/13 04:27:38;;;;;;;4.93;3.70;;;;;;;6.42;73.41;102122.34;4974818;28;20018;-86
2021/04/13 04:30:31;;;;;;;7.05;4.40;;;;;;;6.46;73.78;102129.25;4972930;28;20031;-86
2021/04/13 04:32:59;;;;;;;8.05;5.22;;;;;;;6.31;73.87;102130.44;4970584;28;20077;-86
2021/04/13 04:35:39;;;;;;;7.35;4.75;;;;;;;6.48;72.26;102123.09;4972273;28;20027;-86
2021/04/13 04:38:10;;;;;;;6.55;4.28;;;;;;;6.47;74.33;102130.97;4974647;28;20029;-86
2021/04/13 04:41:00;;;;;;;6.05;3.97;;;;;;;6.90;72.72;102133.38;4971348;28;20428;-86
2021/04/13 04:43:44;;;;;;;7.15;4.50;;;;;;;6.86;73.12;102134.38;4965107;28;20093;-86
2021/04/13 04:46:11;;;;;;;7.60;4.28;;;;;;;7.12;72.57;102130.22;4968159;28;20519;-86
2021/04/13 04:48:38;;;;;;;7.18;4.53;;;;;;;6.92;73.81;102133.34;4973471;28;20030;-86
2021/04/13 04:51:10;;;;;;;9.23;5.07;;;;;;;6.90;74.98;102129.94;4973145;28;20027;-87
2021/04/13 04:53:37;;;;;;;8.88;4.75;;;;;;;7.32;72.68;102135.78;4974487;28;20359;-86
2021/04/13 04:56:07;;;;;;;10.23;5.18;;;;;;;7.43;72.44;102134.66;4973562;28;20489;-86
2021/04/13 04:58:33;;;;;;;8.02;4.68;;;;;;;7.07;73.89;102137.31;4974276;28;20564;-86
2021/04/13 05:00:59;;;;;;;6.15;4.35;;;;;;;6.88;73.68;102136.94;4971319;28;20061;-86
2021/04/13 05:03:26;;;;;;;8.90;5.63;;;;;;;6.60;75.29;102139.38;4974013;28;20031;-86
2021/04/13 05:05:52;;;;;;;10.30;4.60;;;;;;;6.50;77.37;102130.91;4973273;28;20541;-86
2021/04/13 05:08:19;;;;;;;8.23;5.28;;;;;;;6.64;76.88;102144.47;4974089;28;20134;-86
2021/04/13 05:10:44;;;;;;;4.57;4.13;;;;;;;6.90;76.15;102145.59;4973191;28;20053;-87
2021/04/13 05:13:10;;;;;;;8.13;5.07;;;;;;;7.02;75.70;102150.50;4971762;28;20497;-86
2021/04/13 05:15:35;;;;;;;11.48;5.20;;;;;;;6.89;76.24;102155.19;4972975;28;20065;-87
2021/04/13 05:18:01;;;;;;;9.05;5.20;;;;;;;6.98;76.45;102154.09;4972759;28;20474;-86
2021/04/13 05:20:26;;;;;;;9.48;4.50;;;;;;;7.14;76.31;102147.56;4972843;28;20023;-87
2021/04/13 05:22:52;;;;;;;8.18;5.55;;;;;;;7.19;75.91;102149.22;4974210;28;20039;-86
2021/04/13 05:25:18;;;;;;;7.82;5.72;;;;;;;7.05;76.81;102152.16;4972873;28;20154;-86
2021/04/13 05:27:44;;;;;;;9.32;5.93;;;;;;;7.17;77.64;102151.00;4973618;28;20106;-86
2021/04/13 05:30:11;;;;;;;9.90;6.90;;;;;;;7.07;77.77;102143.44;4972581;28;20038;-86
2021/04/13 05:32:37;;;;;;;7.75;6.00;;;;;;;7.33;77.12;102154.94;4969786;28;20041;-86
2021/04/13 05:35:03;;;;;;;6.88;5.75;;;;;;;7.35;76.89;102154.00;4971440;28;20389;-87
2021/04/13 05:37:31;;;;;;;7.88;5.38;;;;;;;7.50;76.37;102163.22;4973578;28;20110;-86
2021/04/13 05:39:57;;;;;;;8.60;5.90;;;;;;;7.48;76.82;102170.19;4970674;28;20030;-86
2021/04/13 05:42:26;;;;;;;10.75;6.70;;;;;;;7.67;76.01;102165.34;4973330;28;20490;-86
2021/04/13 05:44:54;;;;;;;10.05;5.97;;;;;;;7.66;76.55;102170.59;4970341;28;20038;-87
2021/04/13 05:47:20;;;;;;;10.07;6.95;;;;;;;7.79;76.45;102164.16;4973419;28;20446;-86
2021/04/13 05:49:45;;;;;;;13.70;8.27;;;;;;;7.86;76.58;102170.06;4972107;28;20035;-87
2021/04/13 05:52:11;;;;;;;13.80;7.40;;;;;;;7.91;75.91;102165.56;4970963;28;20389;-86
2021/04/13 05:54:36;;;;;;;13.25;6.13;;;;;;;7.74;75.33;102171.25;4973364;28;20034;-86
2021/04/13 05:57:01;;;;;;;10.15;5.43;;;;;;;7.84;74.33;102171.84;4971377;28;20037;-86
2021/04/13 05:59:31;;;;;;;6.35;5.32;;;;;;;7.66;73.83;102173.22;4972152;28;20460;-87
2021/04/13 06:01:57;;;;;;;6.85;5.75;;;;;;;7.67;72.55;102180.19;4968241;28;20031;-86
2021/04/13 06:04:22;;;;;;;7.75;5.93;;;;;;;7.75;72.48;102183.44;4970082;28;20389;-86
2021/04/13 06:06:48;;;;;;;9.02;5.90;;;;;;;7.74;71.36;102182.59;4970893;28;20496;-86
2021/04/13 06:09:14;;;;;;;10.32;6.28;;;;;;;7.55;71.60;102184.84;4970752;28;20027;-87
2021/04/13 06:11:40;;;;;;;12.23;8.13;;;;;;;7.53;73.26;102185.78;4973371;28;20022;-86
2021/04/13 06:14:07;;;;;;;9.38;6.72;;;;;;;7.63;72.55;102183.78;4968248;28;20026;-87
2021/04/13 06:16:37;;;;;;;11.73;7.90;;;;;;;7.78;72.53;102191.22;4973016;28;20081;-87
2021/04/13 06:19:03;;;;;;;10.38;8.00;;;;;;;7.86;72.06;102194.47;4972260;28;20023;-87
2021/04/13 06:21:28;;;;;;;17.67;7.40;;;;;;;8.02;71.09;102194.03;4972594;28;20042;-87
2021/04/13 06:23:54;;;;;;;8.52;6.57;;;;;;;8.19;70.73;102190.91;4972696;28;20046;-86
2021/04/13 06:26:20;;;;;;;9.80;7.57;;;;;;;8.15;69.39;102195.38;4972166;28;20031;-86
2021/04/13 06:28:45;;;;;;;13.68;8.40;;;;;;;8.27;68.53;102192.41;4972857;28;20027;-85
2021/04/13 06:31:11;;;;;;;13.95;7.80;;;;;;;8.28;68.76;102199.34;4972418;28;20169;-85
2021/04/13 06:33:36;;;;;;;13.43;7.32;;;;;;;8.24;68.85;102200.34;4972510;28;20109;-85
2021/04/13 06:36:04;;;;;;;12.82;8.13;;;;;;;8.29;66.95;102203.69;4972499;28;20029;-86
2021/04/13 06:38:30;;;;;;;11.32;7.60;;;;;;;8.33;66.10;102207.94;4971574;28;20042;-86
2021/04/13 06:41:03;;;;;;;11.90;7.60;;;;;;;8.37;65.67;102210.44;4972488;28;20030;-86
2021/04/13 06:43:40;;;;;;;9.10;7.30;;;;;;;8.32;66.78;102205.34;4972335;28;20057;-86
2021/04/13 06:46:20;;;;;;;12.90;7.00;;;;;;;8.46;66.19;102208.44;4972768;28;20073;-86
2021/04/13 06:49:04;;;;;;;10.77;6.70;;;;;;;8.56;65.90;102206.41;4972664;28;20023;-86
2021/04/13 06:51:59;;;;;;;12.15;7.95;;;;;;;8.41;65.63;102209.44;4972434;28;20152;-86
2021/04/13 06:54:40;;;;;;;10.68;7.10;;;;;;;8.51;65.78;102210.91;4971803;28;20110;-86
2021/04/13 06:57:17;;;;;;;17.77;8.57;;;;;;;8.62;66.16;102208.84;4972517;28;20023;-86
2021/04/13 06:59:47;;;;;;;33.10;11.10;;;;;;;8.66;65.89;102197.34;4972563;28;20406;-87
2021/04/13 07:02:20;;;;;;;15.98;8.77;;;;;;;8.91;65.13;102205.31;4972297;28;20037;-86
2021/04/13 07:05:17;;;;;;;27.23;10.18;;;;;;;9.11;65.41;102207.28;4971161;28;20114;-86
2021/04/13 07:08:01;;;;;;;26.40;10.45;;;;;;;9.18;65.99;102209.69;4973949;28;20027;-86
2021/04/13 07:10:34;;;;;;;20.02;11.13;;;;;;;9.35;64.73;102219.63;4983524;28;20449;-86
2021/04/13 07:13:05;;;;;;;25.10;10.95;;;;;;;9.27;65.90;102218.09;4972194;28;20385;-86
2021/04/13 07:15:46;;;;;;;24.17;11.25;;;;;;;9.41;65.17;102220.25;4972339;28;20026;-86
2021/04/13 07:18:57;;;;;;;25.50;11.65;;;;;;;9.65;65.08;102220.31;4972723;28;20405;-85
2021/04/13 07:24:09;;;;;;;27.80;12.48;;;;;;;9.66;65.96;102222.91;4972309;28;20035;-90
2021/04/13 07:26:46;;;;;;;28.27;12.07;;;;;;;9.91;65.04;102230.75;4971061;28;20086;-86
2021/04/13 07:29:36;;;;;;;25.70;11.20;;;;;;;10.25;64.58;102231.28;4967232;28;20026;-86
2021/04/13 07:32:06;;;;;;;25.23;12.48;;;;;;;10.44;63.17;102224.44;4969273;28;20031;-87
2021/04/13 07:34:32;;;;;;;22.17;12.18;;;;;;;10.61;63.43;102226.41;4976463;28;20031;-86
2021/04/13 07:37:05;;;;;;;27.90;13.38;;;;;;;10.74;62.89;102224.16;4975891;28;20030;-87
2021/04/13 07:39:31;;;;;;;26.23;13.40;;;;;;;10.80;61.48;102230.94;4970325;28;20090;-87
2021/04/13 07:42:08;;;;;;;26.23;13.98;;;;;;;10.96;61.63;102228.56;4970368;28;20093;-85
2021/04/13 07:44:54;;;;;;;26.90;13.48;;;;;;;11.27;60.66;102230.78;4988183;28;20033;-85
2021/04/13 07:47:20;;;;;;;24.98;14.32;;;;;;;11.35;59.60;102228.69;4987020;28;20484;-88
2021/04/13 07:49:45;;;;;;;25.48;13.20;;;;;;;11.47;59.72;102227.31;4971636;28;20027;-86
2021/04/13 07:52:42;;;;;;;26.55;16.10;;;;;;;11.57;59.47;102219.88;4972825;28;20035;-86
2021/04/13 07:55:22;;;;;;;23.17;13.80;;;;;;;11.80;58.28;102222.38;4974326;28;20074;-87
2021/04/13 07:58:26;;;;;;;25.15;13.75;;;;;;;11.47;58.99;102203.63;4968515;28;20037;-87
2021/04/13 08:00:52;;;;;;;23.10;14.70;;;;;;;11.58;57.28;102225.09;4971286;28;20115;-88
2021/04/13 08:03:28;;;;;;;21.77;13.98;;;;;;;11.75;57.48;102231.38;4963755;28;20371;-88
2021/04/13 08:06:02;;;;;;;24.42;14.77;;;;;;;11.64;58.66;102224.81;4972507;28;20031;-88
2021/04/13 08:08:35;;;;;;;26.17;14.65;;;;;;;11.62;58.96;102241.59;4972456;28;20049;-87
2021/04/13 08:11:21;;;;;;;20.73;14.15;;;;;;;11.83;58.07;102238.03;4974386;28;20035;-87
2021/04/13 08:13:50;;;;;;;30.67;14.63;;;;;;;12.06;59.23;102244.06;4973792;28;20031;-86
2021/04/13 08:16:32;;;;;;;20.55;12.90;;;;;;;12.73;55.56;102226.06;4973802;28;20030;-86
2021/04/13 08:19:17;;;;;;;30.13;14.13;;;;;;;13.21;54.51;102235.13;4972686;28;20034;-86
2021/04/13 08:21:43;;;;;;;36.63;14.63;;;;;;;14.43;52.05;102229.66;4972718;28;20030;-87
2021/04/13 08:24:34;;;;;;;38.75;14.60;;;;;;;15.21;49.69;102227.91;4974016;28;20031;-87
2021/04/13 08:27:18;;;;;;;33.78;16.05;;;;;;;16.48;46.19;102231.69;4963611;28;20031;-86
2021/04/13 08:30:03;;;;;;;27.63;16.13;;;;;;;16.35;45.54;102225.44;4975747;28;20034;-87
2021/04/13 08:33:09;;;;;;;29.27;15.07;;;;;;;17.99;41.14;102235.78;4978017;28;20033;-87
2021/04/13 08:35:57;;;;;;;20.73;13.98;;;;;;;18.61;40.03;102224.25;4933577;28;20054;-87
2021/04/13 08:38:28;;;;;;;26.27;13.57;;;;;;;19.39;38.33;102230.91;4987027;28;20023;-87
2021/04/13 08:41:31;;;;;;;20.13;13.15;;;;;;;19.98;36.12;102227.25;4991142;28;20015;-87
2021/04/13 08:44:10;;;;;;;21.08;13.95;;;;;;;21.35;34.13;102232.09;4979914;28;20674;-87
2021/04/13 08:47:35;;;;;;;19.00;14.45;;;;;;;21.54;33.50;102225.19;4978357;28;20008;-86
2021/04/13 08:50:01;;;;;;;23.25;14.15;;;;;;;22.14;32.32;102225.34;4933855;29;20028;-87
2021/04/13 08:52:27;;;;;;;23.70;14.82;;;;;;;22.62;31.41;102229.13;4949277;29;20023;-87
2021/04/13 08:55:16;;;;;;;23.42;13.75;;;;;;;22.68;31.37;102223.22;4966150;28;20066;-87
2021/04/13 08:57:47;;;;;;;19.90;14.10;;;;;;;23.17;30.17;102226.78;4974400;28;20062;-87
2021/04/13 09:00:39;;;;;;;26.63;13.55;;;;;;;23.21;31.34;102224.66;4974492;28;20062;-86
2021/04/13 09:03:08;;;;;;;;;;;;;;;24.35;29.49;102228.09;4956125;28;20043;-85
2021/04/13 09:05:38;;;;;;;20.92;14.15;;;;;;;24.50;28.45;102231.94;4970401;28;19914;-85
2021/04/13 09:08:22;;;;;;;20.30;15.18;;;;;;;23.71;29.04;102241.31;4968775;28;20038;-86
2021/04/13 09:11:16;;;;;;;19.50;14.35;;;;;;;24.88;28.21;102234.50;4964526;28;20049;-87
2021/04/13 09:13:46;;;;;;;21.15;13.75;;;;;;;24.67;28.01;102240.19;4967583;28;20482;-90
2021/04/13 09:16:24;;;;;;;17.00;13.32;;;;;;;24.35;29.31;102247.72;4966800;28;20019;-90
2021/04/13 09:18:58;;;;;;;18.20;12.70;;;;;;;25.16;26.95;102240.63;4978378;28;20425;-92
2021/04/13 09:24:19;;;;;;;21.17;14.70;;;;;;;24.92;28.46;102246.63;4969897;28;20070;-89
2021/04/13 09:26:58;;;;;;;21.83;13.95;;;;;;;25.41;26.86;102251.59;4971281;28;20027;-89
2021/04/13 09:29:51;;;;;;;21.73;14.13;;;;;;;25.42;28.25;102251.44;4970541;28;20073;-89
2021/04/13 09:32:23;;;;;;;23.10;13.60;;;;;;;25.63;27.03;102245.72;4971044;28;20054;-87
2021/04/13 09:34:57;;;;;;;16.17;11.77;;;;;;;26.61;24.83;102247.16;4971421;28;20150;-87
2021/04/13 09:37:43;;;;;;;20.48;13.63;;;;;;;27.10;24.03;102248.03;4972613;28;20086;-87
2021/04/13 09:40:41;;;;;;;16.48;13.23;;;;;;;24.94;27.55;102250.88;4973442;28;20023;-87
2021/04/13 09:43:29;;;;;;;16.17;12.60;;;;;;;24.96;26.41;102250.72;4949043;28;20043;-87
2021/04/13 09:46:13;;;;;;;17.73;14.25;;;;;;;24.80;27.34;102251.38;4959133;28;20153;-86
2021/04/13 09:49:14;;;;;;;17.52;13.32;;;;;;;24.82;27.36;102249.41;4973687;28;20022;-87
2021/04/13 09:51:59;;;;;;;17.48;13.63;;;;;;;24.00;27.98;102259.19;4950965;28;20178;-87
2021/04/13 09:54:42;;;;;;;17.77;13.73;;;;;;;22.77;30.78;102250.00;4972800;28;20087;-87
2021/04/13 09:57:33;;;;;;;16.08;13.02;;;;;;;23.27;30.33;102243.69;4973036;28;20030;-87
2021/04/13 10:00:28;;;;;;;15.65;13.45;;;;;;;23.50;29.26;102246.03;4973070;28;20022;-87
2021/04/13 10:03:08;;;;;;;17.85;13.05;;;;;;;23.61;28.84;102240.50;4953715;29;20035;-87
2021/04/13 10:05:40;;;;;;;14.90;11.70;;;;;;;23.57;29.08;102241.78;4955417;28;20038;-87
2021/04/13 10:08:09;;;;;;;18.48;14.15;;;;;;;23.06;29.91;102240.31;4972919;28;20037;-87
2021/04/13 10:10:43;;;;;;;17.60;12.38;;;;;;;22.87;29.66;102239.31;4972848;28;20022;-87
2021/04/13 10:13:27;;;;;;;17.20;13.70;;;;;;;22.76;30.46;102236.75;4972872;28;20031;-87
2021/04/13 10:16:08;;;;;;;18.02;13.55;;;;;;;23.21;29.02;102236.22;4972237;28;20057;-87
2021/04/13 10:18:55;;;;;;;23.73;17.33;;;;;;;24.40;27.41;102239.19;4953763;28;20023;-87
2021/04/13 10:21:41;;;;;;;18.02;11.38;;;;;;;25.11;26.23;102232.19;4968013;28;20039;-87
2021/04/13 10:24:10;;;;;;;16.20;11.52;;;;;;;25.40;26.07;102223.88;4971389;28;20086;-87
2021/04/13 10:27:20;;;;;;;12.43;8.57;;;;;;;25.72;25.31;102223.22;4970963;28;20027;-87
2021/04/13 10:30:07;;;;;;;11.27;8.63;;;;;;;24.31;26.42;102224.84;4968820;28;20038;-87
2021/04/13 10:32:51;;;;;;;15.60;10.82;;;;;;;23.97;27.60;102227.28;4970802;28;20035;-87
2021/04/13 10:35:35;;;;;;;15.75;11.05;;;;;;;24.56;26.65;102227.81;4979786;28;20031;-87
2021/04/13 10:38:31;;;;;;;11.95;8.65;;;;;;;24.39;25.79;102223.22;4953153;28;20398;-87
2021/04/13 10:41:36;;;;;;;12.02;9.00;;;;;;;23.51;28.38;102226.28;4970889;28;20126;-86
2021/04/13 10:44:28;;;;;;;14.75;11.10;;;;;;;24.35;27.34;102222.72;4977490;28;20054;-87
2021/04/13 10:47:14;;;;;;;;;;;;;;;24.51;26.71;102214.84;4938245;28;20082;-87
2021/04/13 10:49:58;;;;;;;11.13;7.88;;;;;;;24.84;25.61;102214.31;4971189;28;20049;-87
2021/04/13 10:53:05;;;;;;;13.70;9.55;;;;;;;23.33;28.49;102213.63;4972305;28;20398;-87
2021/04/13 10:55:47;;;;;;;13.57;9.85;;;;;;;23.34;28.53;102209.97;4972206;28;20496;-87
2021/04/13 10:58:12;;;;;;;12.00;10.07;;;;;;;23.08;29.15;102209.69;4971945;28;20023;-87
2021/04/13 11:01:03;;;;;;;13.57;10.13;;;;;;;22.65;29.52;102207.41;4972409;28;20034;-87
2021/04/13 11:03:50;;;;;;;14.23;10.23;;;;;;;22.87;28.33;102212.53;4972464;28;20053;-88
2021/04/13 11:06:22;;;;;;;18.38;10.00;;;;;;;21.76;30.35;102217.03;4955606;28;20508;-87
2021/04/13 11:09:09;;;;;;;13.25;10.02;;;;;;;22.44;29.96;102216.41;4959982;28;20058;-87
2021/04/13 11:11:50;;;;;;;13.52;9.50;;;;;;;20.90;31.69;102205.59;4972588;28;20043;-87
2021/04/13 11:14:27;;;;;;;13.30;10.43;;;;;;;20.61;32.35;102208.00;4970131;28;20062;-87
2021/04/13 11:17:17;;;;;;;15.25;10.00;;;;;;;20.39;32.49;102216.88;4974881;28;20033;-87
2021/04/13 11:19:58;;;;;;;17.83;9.75;;;;;;;20.48;33.40;102210.81;4956671;29;20114;-87
2021/04/13 11:22:54;;;;;;;14.63;10.48;;;;;;;20.65;32.57;102206.78;4974088;28;20481;-87
2021/04/13 11:25:38;;;;;;;15.27;9.45;;;;;;;21.39;32.08;102204.13;4975936;28;20281;-87
2021/04/13 11:28:06;;;;;;;12.63;9.38;;;;;;;21.03;32.17;102204.56;4973761;28;20027;-87
2021/04/13 11:31:25;;;;;;;14.07;9.10;;;;;;;21.78;30.30;102199.03;4987254;28;20460;-86
2021/04/13 11:34:15;;;;;;;11.50;7.75;;;;;;;22.75;28.77;102201.09;4915624;29;20036;-87
2021/04/13 11:37:14;;;;;;;13.70;8.63;;;;;;;21.96;30.09;102201.06;4983796;28;20128;-87
2021/04/13 11:40:10;;;;;;;8.90;6.55;;;;;;;22.80;27.50;102200.66;4993714;28;20473;-87
2021/04/13 11:42:40;;;;;;;9.32;6.50;;;;;;;22.33;28.58;102195.13;4977400;28;20030;-87
2021/04/13 11:45:27;;;;;;;7.65;5.72;;;;;;;21.63;29.19;102196.84;4973677;28;20033;-87
2021/04/13 11:48:02;;;;;;;9.52;5.95;;;;;;;21.43;30.21;102204.75;4971901;28;20023;-86
2021/04/13 11:50:40;;;;;;;6.53;3.42;;;;;;;22.05;27.49;102194.03;4968794;28;20031;-88
2021/04/13 11:53:10;;;;;;;2.88;2.28;;;;;;;21.96;25.70;102191.19;4975094;28;20039;-87
2021/04/13 11:55:42;;;;;;;3.03;1.98;;;;;;;21.74;27.52;102186.03;4974047;28;20030;-87
2021/04/13 11:58:21;;;;;;;4.35;2.30;;;;;;;22.00;27.42;102197.13;4974050;28;20110;-87
2021/04/13 12:00:48;;;;;;;4.75;2.47;;;;;;;21.33;27.86;102188.63;4975252;28;20085;-87
2021/04/13 12:03:16;;;;;;;2.38;1.90;;;;;;;21.35;27.84;102189.34;4974929;28;20050;-87
2021/04/13 12:05:50;;;;;;;4.40;2.00;;;;;;;20.91;27.83;102188.63;4975338;28;20031;-87
2021/04/13 12:08:40;;;;;;;6.03;1.80;;;;;;;21.46;28.74;102192.94;4975285;28;20026;-87
2021/04/13 12:11:05;;;;;;;3.85;1.98;;;;;;;20.64;27.30;102196.25;4973876;28;20497;-87